Time;durP1;ratioP1;P1;durP2;ratioP2;P2;SDS_P1;SDS_P2;PMS_P1;PMS_P2;Temp;Humidity;BMP_temperature;BMP_pressure;BME280_temperature;BME280_humidity;BME280_pressure;Samples;Min_cycle;Max_cycle;Signal;HPM_P1;HPM_P2
2022/12/02 00:00:21;;;;;;;29.60;12.80;;;;;;;-0.56;74.47;99902.63;103073;1297;107454;-71
2022/12/02 00:03:17;;;;;;;28.60;13.60;;;;;;;-0.55;74.56;99904.34;103059;1290;99305;-71
2022/12/02 00:05:54;;;;;;;32.30;13.10;;;;;;;-0.53;74.47;99904.48;103096;1304;99369;-69
2022/12/02 00:08:31;;;;;;;27.60;13.70;;;;;;;-0.52;74.51;99903.96;103131;1298;113105;-71
2022/12/02 00:11:05;;;;;;;27.30;12.90;;;;;;;-0.52;74.38;99900.83;103153;1303;99712;-70
2022/12/02 00:13:43;;;;;;;28.10;13.00;;;;;;;-0.59;74.30;99897.09;103143;1297;107536;-69
2022/12/02 00:16:24;;;;;;;26.10;12.80;;;;;;;-0.63;74.32;99891.39;103148;1304;99333;-70
2022/12/02 00:18:55;;;;;;;29.40;13.70;;;;;;;-0.62;74.45;99892.94;103165;1304;99218;-70
2022/12/02 00:21:23;;;;;;;25.90;12.40;;;;;;;-0.60;74.43;99891.52;103066;1303;112608;-70
2022/12/02 00:23:51;;;;;;;27.20;12.00;;;;;;;-0.58;74.43;99891.48;103033;1298;99250;-69
2022/12/02 00:26:19;;;;;;;26.80;11.70;;;;;;;-0.58;74.45;99888.70;103121;1304;108111;-70
2022/12/02 00:28:47;;;;;;;27.70;12.40;;;;;;;-0.59;74.45;99888.54;103090;1304;99333;-70
2022/12/02 00:31:17;;;;;;;25.90;10.80;;;;;;;-0.60;74.44;99887.50;103146;1301;99571;-70
2022/12/02 00:33:45;;;;;;;23.30;10.70;;;;;;;-0.58;74.47;99890.45;103110;1304;112456;-70
2022/12/02 00:36:13;;;;;;;27.00;12.30;;;;;;;-0.56;74.57;99890.26;103149;1296;99294;-70
2022/12/02 00:38:41;;;;;;;27.60;12.80;;;;;;;-0.56;74.48;99892.67;103167;1304;108228;-69
2022/12/02 00:41:09;;;;;;;28.90;11.10;;;;;;;-0.55;74.45;99890.05;103079;1297;99314;-70
2022/12/02 00:46:33;;;;;;;24.40;10.90;;;;;;;-0.59;74.45;99887.84;103163;1298;112180;-70
2022/12/02 00:49:08;;;;;;;23.60;11.30;;;;;;;-0.62;74.42;99886.48;103150;1296;99395;-70
2022/12/02 00:51:40;;;;;;;24.50;10.90;;;;;;;-0.62;74.52;99887.20;103112;1303;107505;-71
2022/12/02 00:54:11;;;;;;;24.90;13.00;;;;;;;-0.60;74.46;99889.93;103122;1301;99255;-71
2022/12/02 00:56:40;;;;;;;25.20;11.30;;;;;;;-0.59;74.43;99884.89;103114;1297;96585;-70
2022/12/02 00:59:08;;;;;;;24.80;11.60;;;;;;;-0.63;74.36;99884.59;103379;1296;113016;-71
2022/12/02 01:01:36;;;;;;;27.00;12.70;;;;;;;-0.67;74.34;99885.52;103106;1297;99173;-71
2022/12/02 01:04:06;;;;;;;27.80;12.80;;;;;;;-0.69;74.39;99884.16;103101;1303;107501;-70
2022/12/02 01:06:34;;;;;;;24.20;11.80;;;;;;;-0.69;74.44;99882.92;103115;1291;100352;-70
2022/12/02 01:09:02;;;;;;;26.10;12.60;;;;;;;-0.69;74.36;99882.06;103174;1304;99979;-70
2022/12/02 01:11:29;;;;;;;26.50;12.50;;;;;;;-0.73;74.23;99880.38;103183;1296;110935;-70
2022/12/02 01:13:57;;;;;;;26.70;12.90;;;;;;;-0.78;74.46;99878.16;103083;1303;99231;-69
2022/12/02 01:16:25;;;;;;;26.80;13.20;;;;;;;-0.79;74.35;99882.17;103190;1297;107328;-70
2022/12/02 01:18:53;;;;;;;28.90;12.40;;;;;;;-0.77;74.37;99881.80;103164;1297;99326;-70
2022/12/02 01:21:23;;;;;;;28.30;14.20;;;;;;;-0.75;74.40;99878.31;103178;1300;99291;-69
2022/12/02 01:23:53;;;;;;;27.30;11.90;;;;;;;-0.73;74.43;99876.71;103134;1296;112260;-70
2022/12/02 01:26:21;;;;;;;25.90;11.40;;;;;;;-0.73;74.49;99877.41;103107;1297;99328;-70
2022/12/02 01:28:49;;;;;;;28.20;11.90;;;;;;;-0.73;74.40;99874.27;103141;1298;107554;-70
2022/12/02 01:31:16;;;;;;;25.90;12.00;;;;;;;-0.73;74.45;99875.33;103129;1296;96569;-70
2022/12/02 01:33:44;;;;;;;23.90;11.60;;;;;;;-0.74;74.50;99874.99;103162;1303;99348;-70
2022/12/02 01:36:12;;;;;;;26.80;12.60;;;;;;;-0.73;74.41;99872.19;103145;1303;112129;-70
2022/12/02 01:38:40;;;;;;;28.80;13.30;;;;;;;-0.71;74.42;99873.73;103178;1304;99182;-70
2022/12/02 01:41:10;;;;;;;31.40;13.90;;;;;;;-0.70;74.46;99872.67;103144;1297;107535;-71
2022/12/02 01:43:38;;;;;;;28.80;13.00;;;;;;;-0.68;74.57;99871.95;103158;1304;99253;-70
2022/12/02 01:46:07;;;;;;;28.50;12.80;;;;;;;-0.67;74.53;99870.89;103192;1297;96467;-70
2022/12/02 01:48:36;;;;;;;28.50;14.20;;;;;;;-0.65;74.53;99868.61;103153;1293;112448;-69
2022/12/02 01:51:06;;;;;;;29.20;14.00;;;;;;;-0.65;74.52;99866.33;103190;1296;99279;-70
2022/12/02 01:53:37;;;;;;;29.30;14.00;;;;;;;-0.65;74.55;99869.81;103121;1304;108510;-71
2022/12/02 01:56:05;;;;;;;28.30;14.50;;;;;;;-0.67;74.47;99873.67;103081;1303;98295;-70
2022/12/02 01:58:33;;;;;;;30.90;14.80;;;;;;;-0.67;74.52;99871.77;103095;1297;100303;-68
2022/12/02 02:01:00;;;;;;;32.20;15.40;;;;;;;-0.68;74.49;99872.98;103070;1296;112514;-68
2022/12/02 02:03:30;;;;;;;30.20;15.20;;;;;;;-0.70;74.49;99871.10;103135;1301;99230;-69
2022/12/02 02:05:58;;;;;;;30.40;15.20;;;;;;;-0.71;74.51;99874.26;103085;1293;107687;-69
2022/12/02 02:08:26;;;;;;;29.90;15.60;;;;;;;-0.72;74.54;99869.56;103116;1305;100083;-69
2022/12/02 02:10:54;;;;;;;32.80;15.80;;;;;;;-0.70;74.51;99874.59;103145;1303;99236;-70
2022/12/02 02:13:22;;;;;;;30.00;15.10;;;;;;;-0.69;74.49;99875.97;103134;1304;112445;-70
2022/12/02 02:15:50;;;;;;;34.50;16.30;;;;;;;-0.71;74.47;99877.21;103098;1294;99342;-69
2022/12/02 02:18:18;;;;;;;33.40;17.00;;;;;;;-0.73;74.48;99874.80;103100;1296;108200;-70
2022/12/02 02:20:46;;;;;;;29.20;14.90;;;;;;;-0.75;74.48;99875.88;103124;1296;99307;-71
2022/12/02 02:23:16;;;;;;;33.10;16.10;;;;;;;-0.80;74.46;99870.00;103150;1296;99281;-72
2022/12/02 02:25:52;;;;;;;29.20;14.40;;;;;;;-0.81;74.32;99873.34;103092;1288;112520;-71
2022/12/02 02:28:25;;;;;;;30.20;15.20;;;;;;;-0.82;74.44;99878.23;103120;1304;99327;-70
2022/12/02 02:30:57;;;;;;;30.80;15.40;;;;;;;-0.83;74.55;99873.20;103106;1297;107435;-70
2022/12/02 02:33:29;;;;;;;34.80;15.60;;;;;;;-0.85;74.55;99871.48;103168;1298;99294;-70
2022/12/02 02:36:00;;;;;;;31.10;16.50;;;;;;;-0.86;74.49;99875.15;103142;1304;99215;-70
2022/12/02 02:38:31;;;;;;;31.20;15.00;;;;;;;-0.87;74.50;99872.89;103206;1298;112477;-69
2022/12/02 02:41:00;;;;;;;35.50;16.20;;;;;;;-0.87;74.56;99869.42;103137;1304;99308;-69
2022/12/02 02:43:31;;;;;;;33.60;15.70;;;;;;;-0.89;74.54;99868.05;103182;1301;107577;-69
2022/12/02 02:46:02;;;;;;;32.90;15.60;;;;;;;-0.88;74.62;99868.21;103072;1303;96559;-69
2022/12/02 02:48:33;;;;;;;32.10;16.30;;;;;;;-0.90;74.47;99869.61;103069;1303;99379;-69
2022/12/02 02:51:03;;;;;;;32.90;16.40;;;;;;;-0.91;74.55;99864.23;103071;1297;112177;-70
2022/12/02 02:53:31;;;;;;;33.40;16.80;;;;;;;-0.91;74.50;99863.02;103108;1300;99270;-69
2022/12/02 02:56:02;;;;;;;35.40;17.00;;;;;;;-0.91;74.53;99864.59;103092;1304;107526;-72
2022/12/02 02:58:34;;;;;;;35.20;18.10;;;;;;;-0.90;74.46;99863.52;103167;1297;99339;-71
2022/12/02 03:01:21;;;;;;;30.20;15.20;;;;;;;-0.89;74.49;99859.34;103073;1304;99250;-69
2022/12/02 03:04:07;;;;;;;30.60;14.10;;;;;;;-0.92;74.48;99860.23;103061;1297;112594;-71
2022/12/02 03:06:38;;;;;;;31.60;14.10;;;;;;;-0.94;74.44;99857.84;103089;1298;99249;-74
2022/12/02 03:09:10;;;;;;;30.00;13.50;;;;;;;-0.95;74.53;99856.80;103109;1300;107245;-72
2022/12/02 03:11:45;;;;;;;31.60;15.40;;;;;;;-0.96;74.52;99854.89;103087;1304;99294;-71
2022/12/02 03:14:16;;;;;;;26.20;13.40;;;;;;;-0.96;74.58;99851.77;103172;1297;99256;-70
2022/12/02 03:16:47;;;;;;;30.00;14.40;;;;;;;-0.97;74.64;99848.81;103053;1296;112541;-72
2022/12/02 03:19:17;;;;;;;29.40;13.20;;;;;;;-0.97;74.64;99847.77;103065;1298;96550;-72
2022/12/02 03:21:48;;;;;;;30.50;14.10;;;;;;;-0.96;74.60;99846.70;103109;1303;107505;-71
2022/12/02 03:24:18;;;;;;;30.40;14.90;;;;;;;-0.94;74.76;99844.59;103116;1303;99249;-73
2022/12/02 03:26:48;;;;;;;31.40;13.80;;;;;;;-0.92;74.65;99843.71;103046;1304;99296;-70
2022/12/02 03:29:19;;;;;;;30.90;14.10;;;;;;;-0.93;74.60;99846.32;103052;1296;112274;-70
2022/12/02 03:31:47;;;;;;;30.70;14.30;;;;;;;-0.94;74.57;99846.52;103086;1297;99232;-70
2022/12/02 03:34:17;;;;;;;30.80;13.60;;;;;;;-0.97;74.45;99845.85;103092;1297;107230;-70
2022/12/02 03:36:47;;;;;;;31.80;14.60;;;;;;;-1.01;74.46;99839.81;103040;1303;99197;-69
2022/12/02 03:39:16;;;;;;;27.10;13.10;;;;;;;-1.02;74.53;99843.14;103063;1304;99401;-73
2022/12/02 03:41:47;;;;;;;30.30;13.10;;;;;;;-1.02;74.58;99837.75;103059;1296;111510;-71
2022/12/02 03:44:17;;;;;;;30.20;13.70;;;;;;;-1.06;74.59;99838.15;103113;1298;99204;-72
2022/12/02 03:46:46;;;;;;;31.00;14.70;;;;;;;-1.07;74.61;99836.75;103044;1297;107429;-70
2022/12/02 03:49:19;;;;;;;27.20;13.10;;;;;;;-1.09;74.44;99835.39;103057;1296;96510;-70
2022/12/02 03:51:49;;;;;;;30.60;13.90;;;;;;;-1.10;74.60;99838.69;103113;1304;99214;-69
2022/12/02 03:54:19;;;;;;;29.60;13.90;;;;;;;-1.13;74.63;99838.91;103102;1301;112557;-70
2022/12/02 03:56:47;;;;;;;30.30;14.60;;;;;;;-1.15;74.62;99838.60;103120;1298;100389;-71
2022/12/02 03:59:26;;;;;;;32.70;13.30;;;;;;;-1.17;74.56;99836.35;103043;1304;107445;-70
2022/12/02 04:01:56;;;;;;;30.50;14.60;;;;;;;-1.19;74.82;99842.98;103095;1303;99047;-70
2022/12/02 04:04:24;;;;;;;32.30;15.40;;;;;;;-1.18;74.65;99841.59;103150;1304;96906;-70
2022/12/02 04:06:52;;;;;;;33.00;15.80;;;;;;;-1.17;74.80;99840.35;103168;1299;112358;-71
2022/12/02 04:09:20;;;;;;;31.40;14.20;;;;;;;-1.17;74.79;99845.04;103160;1294;98301;-70
2022/12/02 04:11:47;;;;;;;32.40;15.20;;;;;;;-1.18;74.73;99841.06;103192;1304;107223;-70
2022/12/02 04:14:15;;;;;;;30.80;15.00;;;;;;;-1.18;74.64;99839.67;103220;1303;99286;-70
2022/12/02 04:16:43;;;;;;;29.80;13.30;;;;;;;-1.18;74.88;99844.02;103242;1304;99261;-71
2022/12/02 04:19:14;;;;;;;28.50;12.30;;;;;;;-1.23;74.64;99842.52;103081;1304;112181;-70
2022/12/02 04:21:42;;;;;;;31.70;14.70;;;;;;;-1.27;74.71;99844.67;103099;1303;96584;-70
2022/12/02 04:24:09;;;;;;;26.70;12.40;;;;;;;-1.29;74.66;99841.55;103098;1304;107089;-71
2022/12/02 04:26:39;;;;;;;32.10;12.90;;;;;;;-1.31;74.73;99840.70;103068;1297;99333;-73
2022/12/02 04:29:12;;;;;;;28.50;14.20;;;;;;;-1.33;74.77;99837.23;103076;1303;99331;-72
2022/12/02 04:31:50;;;;;;;31.40;15.00;;;;;;;-1.30;74.65;99835.30;100417;1333;636567;-70
2022/12/02 04:34:17;;;;;;;28.50;13.60;;;;;;;-1.32;74.73;99836.53;102532;1304;94257;-72
2022/12/02 04:36:45;;;;;;;28.90;13.80;;;;;;;-1.34;74.67;99837.25;103414;1294;94333;-69
2022/12/02 04:39:13;;;;;;;29.30;14.00;;;;;;;-1.38;74.44;99837.98;103366;1294;106218;-71
2022/12/02 04:41:41;;;;;;;29.10;13.20;;;;;;;-1.40;74.75;99836.96;103231;1297;94283;-70
2022/12/02 04:44:08;;;;;;;29.40;14.40;;;;;;;-1.37;74.82;99841.12;103295;1295;107566;-67
2022/12/02 04:46:46;;;;;;;30.80;13.90;;;;;;;-1.34;74.93;99840.73;103416;1292;94327;-69
2022/12/02 04:49:17;;;;;;;28.00;13.40;;;;;;;-1.33;74.96;99839.00;103581;1299;95351;-69
2022/12/02 04:51:45;;;;;;;30.80;13.40;;;;;;;-1.32;74.67;99840.37;103484;1302;107717;-68
2022/12/02 04:54:13;;;;;;;28.90;13.40;;;;;;;-1.33;74.75;99839.85;103545;1285;94341;-69
2022/12/02 04:56:43;;;;;;;29.60;13.30;;;;;;;-1.36;74.91;99840.23;103528;1294;108148;-70
2022/12/02 04:59:11;;;;;;;29.00;13.70;;;;;;;-1.39;74.70;99841.65;103445;1299;95281;-69
2022/12/02 05:01:39;;;;;;;28.50;13.40;;;;;;;-1.38;74.85;99841.13;103504;1285;95138;-69
2022/12/02 05:04:07;;;;;;;33.00;14.80;;;;;;;-1.37;74.72;99841.45;103351;1301;109070;-70
2022/12/02 05:06:36;;;;;;;32.40;14.60;;;;;;;-1.36;74.75;99841.96;103699;1291;94336;-68
2022/12/02 05:09:04;;;;;;;31.90;13.40;;;;;;;-1.34;74.90;99848.56;103602;1288;108018;-72
2022/12/02 05:11:32;;;;;;;34.50;14.40;;;;;;;-1.33;74.89;99846.45;103669;1299;95305;-71
2022/12/02 05:14:05;;;;;;;30.30;13.80;;;;;;;-1.32;74.89;99848.88;103560;1291;94225;-69
2022/12/02 05:16:34;;;;;;;30.20;15.10;;;;;;;-1.31;74.89;99845.05;103555;1296;109047;-69
2022/12/02 05:19:02;;;;;;;29.90;14.40;;;;;;;-1.31;74.85;99844.70;103676;1291;94245;-68
2022/12/02 05:21:30;;;;;;;26.20;12.10;;;;;;;-1.33;74.92;99842.45;103710;1295;107855;-68
2022/12/02 05:23:58;;;;;;;26.30;10.60;;;;;;;-1.35;75.01;99840.39;103652;1289;94257;-71
2022/12/02 05:26:28;;;;;;;29.70;13.40;;;;;;;-1.37;75.12;99842.16;103568;1291;95175;-69
2022/12/02 05:28:56;;;;;;;27.70;13.50;;;;;;;-1.38;74.95;99840.42;103691;1291;108998;-68
2022/12/02 05:31:24;;;;;;;29.90;13.40;;;;;;;-1.39;75.06;99843.21;103795;1289;95254;-70
2022/12/02 05:33:52;;;;;;;32.00;14.40;;;;;;;-1.39;74.89;99844.27;103532;1299;107446;-68
2022/12/02 05:36:20;;;;;;;29.10;13.20;;;;;;;-1.38;74.85;99845.47;103571;1295;95227;-67
2022/12/02 05:38:48;;;;;;;29.30;14.00;;;;;;;-1.39;74.80;99846.00;103439;1297;95260;-68
2022/12/02 05:41:16;;;;;;;28.60;13.50;;;;;;;-1.41;74.99;99843.41;103341;1302;108944;-68
2022/12/02 05:43:44;;;;;;;31.90;13.60;;;;;;;-1.41;75.09;99849.33;103536;1291;94302;-68
2022/12/02 05:46:15;;;;;;;34.10;15.50;;;;;;;-1.39;74.95;99847.92;103551;1292;108046;-70
2022/12/02 05:48:45;;;;;;;32.30;15.00;;;;;;;-1.38;74.76;99845.64;103561;1290;95184;-69
2022/12/02 05:51:19;;;;;;;30.30;15.00;;;;;;;-1.38;74.97;99851.04;103604;1295;95247;-69
2022/12/02 05:53:50;;;;;;;30.80;15.20;;;;;;;-1.40;75.00;99850.70;103562;1288;109472;-69
2022/12/02 05:56:28;;;;;;;33.80;17.00;;;;;;;-1.42;74.64;99846.73;103600;1289;94319;-71
2022/12/02 05:59:07;;;;;;;36.20;17.80;;;;;;;-1.40;74.81;99848.98;103601;1295;107210;-69
2022/12/02 06:01:38;;;;;;;38.60;19.00;;;;;;;-1.42;75.01;99847.09;103577;1295;95249;-68
2022/12/02 06:04:24;;;;;;;36.00;17.70;;;;;;;-1.43;74.93;99853.19;103662;1299;94326;-70
2022/12/02 06:06:58;;;;;;;35.00;17.30;;;;;;;-1.44;74.83;99853.72;103494;1298;108089;-68
2022/12/02 06:09:32;;;;;;;32.40;15.80;;;;;;;-1.44;74.90;99853.04;103540;1292;95153;-68
2022/12/02 06:12:09;;;;;;;33.50;15.40;;;;;;;-1.44;75.04;99858.92;103461;1294;107461;-68
2022/12/02 06:14:42;;;;;;;31.90;15.40;;;;;;;-1.43;74.92;99856.32;103436;1291;95895;-69
2022/12/02 06:17:16;;;;;;;35.30;15.90;;;;;;;-1.45;75.02;99854.09;103442;1299;95362;-68
2022/12/02 06:19:52;;;;;;;31.90;16.40;;;;;;;-1.45;75.10;99855.33;103566;1289;108489;-69
2022/12/02 06:22:31;;;;;;;28.40;13.00;;;;;;;-1.45;75.03;99859.98;103514;1291;95032;-69
2022/12/02 06:25:00;;;;;;;28.90;13.90;;;;;;;-1.46;74.92;99856.18;103557;1290;107139;-69
2022/12/02 06:27:29;;;;;;;26.80;13.10;;;;;;;-1.50;74.78;99855.17;103581;1295;95284;-69
2022/12/02 06:30:04;;;;;;;30.80;15.20;;;;;;;-1.53;75.02;99860.07;103625;1291;95166;-68
2022/12/02 06:32:38;;;;;;;27.00;12.60;;;;;;;-1.55;74.91;99858.53;103578;1295;109068;-68
2022/12/02 06:35:23;;;;;;;26.00;12.30;;;;;;;-1.54;74.95;99864.96;103434;1300;95184;-69
2022/12/02 06:38:11;;;;;;;27.00;11.80;;;;;;;-1.57;75.02;99867.59;103536;1294;107567;-69
2022/12/02 06:40:39;;;;;;;25.20;12.60;;;;;;;-1.60;74.91;99869.87;103449;1294;95152;-69
2022/12/02 06:43:20;;;;;;;26.80;11.70;;;;;;;-1.60;74.94;99871.27;103677;1294;95243;-68
2022/12/02 06:45:47;;;;;;;28.80;13.40;;;;;;;-1.57;75.01;99874.04;103618;1299;109051;-67
2022/12/02 06:48:46;;;;;;;34.70;14.80;;;;;;;-1.58;74.93;99876.64;103620;1291;95833;-69
2022/12/02 06:51:21;;;;;;;29.50;14.80;;;;;;;-1.57;74.97;99877.33;103425;1293;108562;-68
2022/12/02 06:53:49;;;;;;;32.10;14.70;;;;;;;-1.55;75.12;99876.10;103647;1290;95178;-69
2022/12/02 06:56:23;;;;;;;42.20;14.40;;;;;;;-1.52;75.05;99878.16;103462;1291;95267;-68
2022/12/02 06:58:59;;;;;;;30.90;14.70;;;;;;;-1.50;75.18;99880.23;103494;1290;109760;-66
2022/12/02 07:01:37;;;;;;;29.90;14.50;;;;;;;-1.48;75.11;99879.86;103594;1295;94768;-67
2022/12/02 07:04:07;;;;;;;30.70;14.80;;;;;;;-1.47;74.91;99876.19;103514;1297;108071;-67
2022/12/02 07:06:41;;;;;;;29.20;14.20;;;;;;;-1.46;75.09;99877.75;103649;1289;95246;-67
2022/12/02 07:09:26;;;;;;;32.30;16.40;;;;;;;-1.44;75.20;99880.86;103499;1292;95234;-69
2022/12/02 07:11:58;;;;;;;35.20;15.20;;;;;;;-1.44;75.06;99874.95;103511;1295;108499;-68
2022/12/02 07:14:39;;;;;;;34.10;15.70;;;;;;;-1.45;74.98;99881.92;103504;1294;95162;-69
2022/12/02 07:17:31;;;;;;;31.80;14.20;;;;;;;-1.43;75.19;99877.54;103439;1288;108137;-69
2022/12/02 07:20:05;;;;;;;31.70;15.00;;;;;;;-1.42;75.35;99881.17;103403;1296;95346;-68
2022/12/02 07:22:48;;;;;;;30.60;15.30;;;;;;;-1.41;75.27;99882.20;103396;1293;95249;-71
2022/12/02 07:25:16;;;;;;;35.80;16.70;;;;;;;-1.41;75.31;99885.86;103347;1298;109000;-69
2022/12/02 07:27:48;;;;;;;29.70;13.90;;;;;;;-1.41;74.95;99887.96;103522;1293;94212;-72
2022/12/02 07:30:20;;;;;;;32.10;15.20;;;;;;;-1.43;75.03;99885.72;103856;1289;107856;-68
2022/12/02 07:32:48;;;;;;;30.50;14.90;;;;;;;-1.46;75.12;99885.77;103765;1292;95159;-69
2022/12/02 07:35:19;;;;;;;31.00;14.30;;;;;;;-1.51;75.09;99889.63;103548;1292;95234;-70
2022/12/02 07:37:47;;;;;;;35.60;17.60;;;;;;;-1.52;74.97;99889.29;103557;1291;106203;-69
2022/12/02 07:40:19;;;;;;;33.40;16.50;;;;;;;-1.53;75.08;99886.87;103624;1298;94228;-69
2022/12/02 07:42:49;;;;;;;30.90;16.90;;;;;;;-1.53;75.10;99886.87;103432;1299;108079;-69
2022/12/02 07:45:20;;;;;;;32.00;16.20;;;;;;;-1.55;75.01;99888.80;103507;1297;95306;-68
2022/12/02 07:47:48;;;;;;;29.70;15.40;;;;;;;-1.54;75.28;99887.21;103499;1298;94274;-68
2022/12/02 07:50:18;;;;;;;32.60;16.10;;;;;;;-1.55;75.14;99891.58;103660;1288;108584;-68
2022/12/02 07:52:46;;;;;;;34.20;16.80;;;;;;;-1.55;75.05;99891.41;103576;1298;94311;-69
2022/12/02 07:55:16;;;;;;;35.70;16.80;;;;;;;-1.52;75.15;99885.80;103690;1295;107022;-71
2022/12/02 07:57:55;;;;;;;36.00;16.60;;;;;;;-1.51;75.29;99885.63;103517;1290;95230;-70
2022/12/02 08:00:24;;;;;;;36.80;18.50;;;;;;;-1.50;75.33;99888.05;103702;1298;94350;-70
2022/12/02 08:02:55;;;;;;;38.00;18.20;;;;;;;-1.47;75.23;99890.29;103660;1290;109059;-71
2022/12/02 08:05:24;;;;;;;38.60;19.00;;;;;;;-1.47;75.27;99892.38;103688;1290;95172;-71
2022/12/02 08:07:54;;;;;;;38.40;19.20;;;;;;;-1.45;75.16;99890.62;103683;1296;107301;-71
2022/12/02 08:10:22;;;;;;;40.00;19.70;;;;;;;-1.43;75.21;99887.29;103595;1295;95354;-68
2022/12/02 08:12:51;;;;;;;44.10;21.90;;;;;;;-1.42;75.30;99886.92;103628;1290;94253;-70
2022/12/02 08:15:19;;;;;;;43.50;22.60;;;;;;;-1.40;75.26;99887.95;103648;1295;109465;-69
2022/12/02 08:17:47;;;;;;;46.00;23.60;;;;;;;-1.39;75.39;99881.51;103606;1283;96209;-69
2022/12/02 08:20:17;;;;;;;43.50;23.00;;;;;;;-1.39;75.24;99881.31;103663;1291;108036;-68
2022/12/02 08:22:44;;;;;;;40.70;20.90;;;;;;;-1.40;75.34;99882.02;103632;1295;94225;-69
2022/12/02 08:25:13;;;;;;;40.90;21.10;;;;;;;-1.44;75.11;99887.83;103670;1294;94204;-68
2022/12/02 08:27:42;;;;;;;41.90;22.00;;;;;;;-1.49;74.99;99889.78;103626;1294;109159;-69
2022/12/02 08:30:16;;;;;;;43.00;21.00;;;;;;;-1.49;75.40;99888.73;103647;1294;94210;-68
2022/12/02 08:32:44;;;;;;;40.40;22.30;;;;;;;-1.47;75.21;99888.20;103623;1291;107516;-68
2022/12/02 08:35:12;;;;;;;44.10;22.50;;;;;;;-1.45;75.33;99886.79;103563;1295;94328;-70
2022/12/02 08:37:44;;;;;;;40.80;18.50;;;;;;;-1.44;75.33;99890.08;103659;1295;95140;-70
2022/12/02 08:40:12;;;;;;;42.80;20.60;;;;;;;-1.44;75.10;99891.48;103647;1289;108329;-70
2022/12/02 08:42:41;;;;;;;42.90;20.90;;;;;;;-1.43;75.39;99889.20;103552;1292;95223;-70
2022/12/02 08:45:11;;;;;;;40.20;19.50;;;;;;;-1.40;75.28;99889.15;103646;1294;107566;-70
2022/12/02 08:47:39;;;;;;;42.10;20.30;;;;;;;-1.41;75.24;99887.61;103652;1294;94896;-70
2022/12/02 08:50:11;;;;;;;41.70;20.60;;;;;;;-1.44;75.01;99881.92;103523;1295;96944;-70
2022/12/02 08:52:38;;;;;;;41.40;20.10;;;;;;;-1.49;75.40;99881.27;103484;1298;109601;-69
2022/12/02 08:55:08;;;;;;;41.40;20.30;;;;;;;-1.52;75.37;99882.50;103504;1299;96560;-69
2022/12/02 08:57:36;;;;;;;40.90;20.90;;;;;;;-1.53;75.47;99886.34;103522;1297;108118;-68
2022/12/02 09:00:07;;;;;;;41.60;21.20;;;;;;;-1.51;75.35;99880.41;103579;1299;94227;-68
2022/12/02 09:02:37;;;;;;;44.40;21.40;;;;;;;-1.50;75.30;99885.61;103435;1299;96468;-69
2022/12/02 09:05:06;;;;;;;40.50;19.00;;;;;;;-1.49;75.29;99883.00;103587;1291;110561;-69
2022/12/02 09:07:37;;;;;;;37.60;19.10;;;;;;;-1.49;75.36;99881.77;103606;1291;94298;-69
2022/12/02 09:10:08;;;;;;;42.30;20.80;;;;;;;-1.51;75.31;99880.23;103556;1296;107771;-69
2022/12/02 09:12:36;;;;;;;39.20;18.60;;;;;;;-1.53;75.32;99881.98;103476;1298;96605;-69
2022/12/02 09:15:07;;;;;;;45.30;21.70;;;;;;;-1.53;75.09;99875.39;103558;1299;96564;-69
2022/12/02 09:17:35;;;;;;;41.90;20.50;;;;;;;-1.55;75.15;99878.36;103664;1295;110411;-70
2022/12/02 09:20:05;;;;;;;44.30;22.40;;;;;;;-1.53;75.25;99878.86;103608;1297;96611;-69
2022/12/02 09:22:35;;;;;;;39.90;19.20;;;;;;;-1.50;75.28;99877.27;103573;1294;107542;-70
2022/12/02 09:25:05;;;;;;;41.90;19.80;;;;;;;-1.50;75.43;99876.73;103467;1294;97265;-71
2022/12/02 09:27:37;;;;;;;41.10;21.00;;;;;;;-1.47;75.22;99869.59;103678;1292;96486;-69
2022/12/02 09:30:10;;;;;;;40.70;20.10;;;;;;;-1.45;75.46;99869.92;103515;1292;109995;-67
2022/12/02 09:32:38;;;;;;;43.80;21.60;;;;;;;-1.46;75.24;99873.05;103543;1295;97064;-68
2022/12/02 09:35:08;;;;;;;43.80;21.60;;;;;;;-1.45;75.34;99870.44;103521;1297;107173;-69
2022/12/02 09:37:39;;;;;;;44.60;19.20;;;;;;;-1.43;75.35;99867.97;103663;1292;96500;-70
2022/12/02 09:40:09;;;;;;;44.90;21.40;;;;;;;-1.40;75.40;99872.81;103481;1297;97279;-69
2022/12/02 09:42:37;;;;;;;44.20;20.90;;;;;;;-1.39;75.24;99870.88;103556;1299;110295;-69
2022/12/02 09:45:06;;;;;;;39.10;20.00;;;;;;;-1.39;75.33;99867.76;103591;1291;96607;-69
2022/12/02 09:47:34;;;;;;;43.40;21.80;;;;;;;-1.37;75.43;99865.63;103619;1288;108177;-69
2022/12/02 09:50:05;;;;;;;43.20;21.50;;;;;;;-1.35;75.47;99863.53;103548;1289;95335;-70
2022/12/02 09:52:34;;;;;;;53.80;23.80;;;;;;;-1.35;75.55;99861.79;103595;1289;97076;-67
2022/12/02 09:55:12;;;;;;;47.50;24.00;;;;;;;-1.33;75.40;99858.81;103471;1291;110065;-68
2022/12/02 09:57:41;;;;;;;44.20;21.50;;;;;;;-1.32;75.41;99859.84;103649;1295;96512;-69
2022/12/02 10:00:17;;;;;;;44.50;22.10;;;;;;;-1.29;75.36;99858.42;103518;1289;107738;-70
2022/12/02 10:02:50;;;;;;;43.80;21.00;;;;;;;-1.28;75.25;99853.90;103639;1299;96517;-69
2022/12/02 10:05:24;;;;;;;49.20;21.00;;;;;;;-1.28;75.27;99850.58;103561;1293;94921;-68
2022/12/02 10:07:58;;;;;;;;;;;;;;;-1.25;75.26;99855.26;103636;1294;109863;-68
2022/12/02 10:10:33;;;;;;;39.20;19.20;;;;;;;-1.25;75.39;99856.48;103560;1289;96589;-69
2022/12/02 10:13:02;;;;;;;40.50;20.40;;;;;;;-1.22;75.35;99852.59;103669;1294;107435;-68
2022/12/02 10:15:34;;;;;;;42.80;20.40;;;;;;;-1.20;75.33;99852.92;103645;1299;96619;-69
2022/12/02 10:18:14;;;;;;;42.40;19.70;;;;;;;-1.21;75.22;99852.92;103689;1292;96516;-70
2022/12/02 10:20:44;;;;;;;40.20;19.90;;;;;;;-1.20;75.32;99855.19;103497;1291;109970;-69
2022/12/02 10:23:18;;;;;;;47.10;21.40;;;;;;;-1.19;75.35;99854.13;103470;1295;96719;-69
2022/12/02 10:25:53;;;;;;;42.30;20.20;;;;;;;-1.17;75.23;99854.97;103644;1291;107244;-69
2022/12/02 10:28:24;;;;;;;45.40;22.60;;;;;;;-1.14;75.36;99853.71;103641;1289;96964;-69
2022/12/02 10:30:54;;;;;;;38.50;19.30;;;;;;;-1.12;75.21;99853.88;103632;1291;96535;-70
2022/12/02 10:33:29;;;;;;;45.30;21.10;;;;;;;-1.13;75.31;99847.98;103651;1294;109795;-68
2022/12/02 10:35:59;;;;;;;48.60;25.80;;;;;;;-1.13;75.34;99849.01;103620;1291;96610;-70
2022/12/02 10:38:43;;;;;;;49.90;25.70;;;;;;;-1.10;75.41;99848.12;103670;1291;107986;-69
2022/12/02 10:41:14;;;;;;;43.70;21.70;;;;;;;-1.09;75.49;99845.66;103626;1294;96486;-67
2022/12/02 10:43:51;;;;;;;48.50;23.10;;;;;;;-1.08;75.39;99847.91;103513;1307;94688;-69
2022/12/02 10:46:22;;;;;;;49.30;23.50;;;;;;;-1.05;75.19;99838.82;103531;1295;110331;-67
2022/12/02 10:48:50;;;;;;;49.90;24.90;;;;;;;-1.02;75.55;99838.27;103569;1295;96605;-68
2022/12/02 10:51:20;;;;;;;49.10;23.90;;;;;;;-1.01;75.35;99834.05;103581;1295;107073;-68
2022/12/02 10:53:56;;;;;;;46.10;23.70;;;;;;;-1.01;75.27;99835.09;103567;1295;95012;-70
2022/12/02 10:56:23;;;;;;;41.70;22.30;;;;;;;-0.98;75.37;99833.14;103632;1294;94228;-68
2022/12/02 10:58:54;;;;;;;45.40;22.60;;;;;;;-0.96;75.28;99830.52;103634;1294;110547;-69
2022/12/02 11:01:22;;;;;;;41.00;20.10;;;;;;;-0.94;75.52;99830.15;103665;1293;97033;-72
2022/12/02 11:03:50;;;;;;;41.90;20.90;;;;;;;-0.93;75.28;99827.00;103660;1288;108168;-69
2022/12/02 11:06:21;;;;;;;43.90;22.00;;;;;;;-0.92;75.29;99825.59;103477;1299;94301;-69
2022/12/02 11:08:49;;;;;;;50.10;22.60;;;;;;;-0.90;75.34;99829.04;103602;1298;94517;-69
2022/12/02 11:11:23;;;;;;;42.70;22.20;;;;;;;-0.88;75.23;99825.02;103647;1292;109862;-69
2022/12/02 11:13:59;;;;;;;46.40;22.80;;;;;;;-0.85;75.47;99822.55;103671;1288;96674;-68
2022/12/02 11:16:27;;;;;;;48.00;23.80;;;;;;;-0.83;75.35;99821.82;103665;1294;107557;-69
2022/12/02 11:19:16;;;;;;;49.90;25.70;;;;;;;-0.80;75.25;99822.10;103650;1295;96501;-68
2022/12/02 11:21:44;;;;;;;50.40;25.50;;;;;;;-0.77;75.35;99821.38;103659;1299;96777;-69
2022/12/02 11:24:25;;;;;;;49.50;24.60;;;;;;;-0.75;75.40;99817.86;103472;1298;110421;-68
2022/12/02 11:26:59;;;;;;;50.40;25.30;;;;;;;-0.70;75.45;99813.27;103511;1278;94991;-69